createdAt,value
2022-10-31T00:00:30.264Z,17.50
2022-10-31T00:03:22.561Z,17.30
2022-10-31T00:05:54.893Z,17.40
2022-10-31T00:08:27.398Z,17.20
2022-10-31T00:10:59.554Z,16.70
2022-10-31T00:13:31.883Z,16.30
2022-10-31T00:16:04.204Z,17.20
2022-10-31T00:18:36.576Z,16.20
2022-10-31T00:23:39.922Z,16.10
2022-10-31T00:26:12.305Z,16.70
2022-10-31T00:28:45.706Z,17.40
2022-10-31T00:31:17.973Z,16.40
2022-10-31T00:33:50.184Z,15.30
2022-10-31T00:36:23.105Z,16.50
2022-10-31T00:38:55.534Z,16.60
2022-10-31T00:41:27.844Z,17.10
2022-10-31T00:44:00.338Z,17.60
2022-10-31T00:49:03.328Z,16.90
2022-10-31T00:51:35.646Z,16.30
2022-10-31T00:54:08.243Z,17.10
2022-10-31T00:59:11.020Z,15.20
2022-10-31T01:01:43.542Z,17.20
2022-10-31T01:04:15.924Z,18.50
2022-10-31T01:06:48.177Z,17.40
2022-10-31T01:09:20.647Z,15.90
2022-10-31T01:11:52.921Z,15.70
2022-10-31T01:14:25.369Z,15.90
2022-10-31T01:16:57.643Z,16.20
2022-10-31T01:19:30.035Z,15.70
2022-10-31T01:22:02.225Z,15.10
2022-10-31T01:24:34.472Z,15.30
2022-10-31T01:27:07.048Z,16.00
2022-10-31T01:32:09.977Z,14.60
2022-10-31T01:34:42.408Z,13.70
2022-10-31T01:39:45.480Z,14.10
2022-10-31T01:42:22.462Z,13.10
2022-10-31T01:45:06.514Z,12.30
2022-10-31T01:47:45.641Z,11.90
2022-10-31T01:50:27.269Z,12.00
2022-10-31T01:52:59.737Z,14.50
2022-10-31T01:58:07.283Z,12.20
2022-10-31T02:00:39.581Z,11.20
2022-10-31T02:03:11.841Z,12.20
2022-10-31T02:05:45.548Z,12.60
2022-10-31T02:08:21.096Z,12.40
2022-10-31T02:10:53.406Z,12.30
2022-10-31T02:16:03.623Z,11.40
2022-10-31T02:18:35.943Z,11.70
2022-10-31T02:21:16.470Z,12.00
2022-10-31T02:24:18.224Z,10.80
2022-10-31T02:27:09.792Z,11.60
2022-10-31T02:29:58.811Z,10.00
2022-10-31T02:32:35.707Z,9.20
2022-10-31T02:35:14.416Z,10.50
2022-10-31T02:37:52.368Z,11.10
2022-10-31T02:40:28.192Z,10.20
2022-10-31T02:43:05.040Z,11.40
2022-10-31T02:45:41.649Z,11.80
2022-10-31T02:48:16.763Z,12.10
2022-10-31T02:50:55.192Z,12.00
2022-10-31T02:53:28.143Z,11.50
2022-10-31T02:58:36.057Z,10.60
2022-10-31T03:01:55.768Z,12.20
2022-10-31T03:04:54.792Z,11.00
2022-10-31T03:07:34.346Z,11.80
2022-10-31T03:10:15.304Z,11.60
2022-10-31T03:12:52.349Z,11.80
2022-10-31T03:15:27.682Z,11.30
2022-10-31T03:18:04.108Z,11.70
2022-10-31T03:20:40.783Z,11.80
2022-10-31T03:23:16.924Z,11.30
2022-10-31T03:25:50.533Z,12.10
2022-10-31T03:28:26.415Z,11.00
2022-10-31T03:31:00.409Z,11.00
2022-10-31T03:33:37.149Z,11.30
2022-10-31T03:36:13.112Z,10.70
2022-10-31T03:38:46.324Z,11.10
2022-10-31T03:41:23.415Z,10.80
2022-10-31T03:44:00.581Z,10.60
2022-10-31T03:46:32.988Z,11.20
2022-10-31T03:49:05.636Z,10.30
2022-10-31T03:51:42.459Z,10.80
2022-10-31T03:54:19.276Z,10.70
2022-10-31T03:56:54.641Z,9.60
2022-10-31T03:59:28.793Z,9.60
2022-10-31T04:02:02.740Z,10.70
2022-10-31T04:04:35.049Z,10.10
2022-10-31T04:07:08.220Z,10.50
2022-10-31T04:09:42.574Z,10.40
2022-10-31T04:12:16.896Z,10.00
2022-10-31T04:14:51.620Z,9.90
2022-10-31T04:17:25.726Z,10.00
2022-10-31T04:19:57.987Z,10.70
2022-10-31T04:22:30.667Z,10.80
2022-10-31T04:25:02.982Z,10.90
2022-10-31T04:27:35.331Z,11.50
2022-10-31T04:30:09.203Z,9.90
2022-10-31T04:32:41.471Z,11.20
2022-10-31T04:35:13.685Z,9.60
2022-10-31T04:37:46.047Z,10.60
2022-10-31T04:40:18.565Z,10.20
2022-10-31T04:42:50.695Z,10.10
2022-10-31T04:45:22.793Z,10.80
2022-10-31T04:47:54.879Z,10.80
2022-10-31T04:50:27.292Z,10.80
2022-10-31T04:52:59.584Z,9.80
2022-10-31T04:55:31.836Z,10.70
2022-10-31T04:58:04.908Z,11.00
2022-10-31T05:03:52.225Z,11.60
2022-10-31T05:06:24.489Z,11.30
2022-10-31T05:08:56.841Z,11.80
2022-10-31T05:11:29.145Z,12.70
2022-10-31T05:14:01.415Z,12.50
2022-10-31T05:16:33.700Z,11.80
2022-10-31T05:19:06.399Z,12.70
2022-10-31T05:21:38.648Z,11.60
2022-10-31T05:24:11.732Z,12.40
2022-10-31T05:26:44.124Z,12.60
2022-10-31T05:29:16.588Z,11.90
2022-10-31T05:31:48.922Z,12.60
2022-10-31T05:34:21.169Z,11.40
2022-10-31T05:36:53.360Z,13.20
2022-10-31T05:39:25.604Z,12.30
2022-10-31T05:41:57.814Z,12.30
2022-10-31T05:44:30.029Z,13.20
2022-10-31T05:47:02.386Z,12.30
2022-10-31T05:49:34.510Z,14.00
2022-10-31T05:52:07.103Z,14.80
2022-10-31T05:54:39.382Z,14.00
2022-10-31T05:57:11.687Z,13.30
2022-10-31T05:59:43.863Z,14.10
2022-10-31T06:02:15.998Z,14.00
2022-10-31T06:04:48.578Z,14.10
2022-10-31T06:07:21.528Z,14.40
2022-10-31T06:09:54.259Z,14.70
2022-10-31T06:12:27.138Z,14.40
2022-10-31T06:17:45.780Z,16.90
2022-10-31T06:20:18.430Z,16.50
2022-10-31T06:22:51.428Z,15.50
2022-10-31T06:25:24.210Z,15.00
2022-10-31T06:27:59.449Z,14.80
2022-10-31T06:30:34.756Z,14.80
2022-10-31T06:34:58.999Z,15.70
2022-10-31T06:37:31.450Z,15.20
2022-10-31T06:40:09.362Z,15.10
2022-10-31T06:42:41.674Z,15.00
2022-10-31T06:45:18.299Z,16.00
2022-10-31T06:48:17.032Z,14.90
2022-10-31T06:50:48.500Z,15.80
2022-10-31T06:53:23.065Z,15.00
2022-10-31T06:55:58.975Z,16.50
2022-10-31T06:58:31.303Z,15.30
2022-10-31T07:01:05.983Z,15.80
2022-10-31T07:03:38.365Z,18.10
2022-10-31T07:08:41.134Z,18.10
2022-10-31T07:11:13.178Z,18.20
2022-10-31T07:13:45.565Z,17.70
2022-10-31T07:16:17.708Z,17.60
2022-10-31T07:18:50.289Z,18.30
2022-10-31T07:23:53.243Z,18.60
2022-10-31T07:28:55.821Z,20.60
2022-10-31T07:31:27.923Z,19.20
2022-10-31T07:34:00.763Z,18.40
2022-10-31T07:36:33.113Z,18.60
2022-10-31T07:39:05.714Z,18.10
2022-10-31T07:44:08.660Z,14.10
2022-10-31T07:49:11.268Z,12.80
2022-10-31T07:51:46.461Z,13.10
2022-10-31T07:54:18.942Z,9.60
2022-10-31T07:56:51.052Z,9.60
2022-10-31T07:59:27.085Z,8.50
2022-10-31T08:01:59.243Z,8.70
2022-10-31T08:04:31.448Z,7.50
2022-10-31T08:07:03.595Z,9.00
2022-10-31T08:09:35.888Z,7.80
2022-10-31T08:12:08.565Z,6.90
2022-10-31T08:14:40.700Z,7.00
2022-10-31T08:17:12.766Z,7.50
2022-10-31T08:19:45.021Z,8.50
2022-10-31T08:22:17.224Z,7.70
2022-10-31T08:24:49.496Z,7.60
2022-10-31T08:27:21.767Z,6.80
2022-10-31T08:29:53.856Z,6.20
2022-10-31T08:32:26.082Z,7.50
2022-10-31T08:34:58.430Z,6.20
2022-10-31T08:37:30.651Z,6.40
2022-10-31T08:40:02.885Z,6.40
2022-10-31T08:45:06.221Z,7.80
2022-10-31T08:47:38.447Z,7.80
2022-10-31T08:50:11.416Z,7.60
2022-10-31T08:53:03.451Z,6.80
2022-10-31T08:55:37.107Z,6.80
2022-10-31T08:58:11.548Z,7.60
2022-10-31T09:00:44.064Z,6.30
2022-10-31T09:05:47.200Z,7.10
2022-10-31T09:08:19.752Z,7.50
2022-10-31T09:10:52.082Z,7.90
2022-10-31T09:13:27.996Z,7.00
2022-10-31T09:16:00.975Z,7.10
2022-10-31T09:18:33.015Z,7.80
2022-10-31T09:21:05.526Z,9.00
2022-10-31T09:26:08.253Z,6.50
2022-10-31T09:28:40.523Z,7.00
2022-10-31T09:31:12.655Z,6.70
2022-10-31T09:33:44.765Z,6.80
2022-10-31T09:36:19.170Z,7.00
2022-10-31T09:38:51.459Z,7.10
2022-10-31T09:41:27.771Z,7.50
2022-10-31T09:44:04.242Z,7.00
2022-10-31T09:46:41.445Z,7.00
2022-10-31T09:49:35.539Z,7.30
2022-10-31T09:52:15.614Z,7.20
2022-10-31T09:54:50.599Z,7.90
2022-10-31T09:57:27.547Z,7.70
2022-10-31T10:00:00.537Z,8.10
2022-10-31T10:02:37.199Z,8.10
2022-10-31T10:05:14.184Z,7.00
2022-10-31T10:07:52.270Z,6.70
2022-10-31T10:10:30.260Z,5.30
2022-10-31T10:13:14.453Z,6.30
2022-10-31T10:16:25.046Z,6.20
2022-10-31T10:19:08.475Z,5.90
2022-10-31T10:21:48.096Z,8.30
2022-10-31T10:24:30.467Z,6.80
2022-10-31T10:29:43.180Z,6.70
2022-10-31T10:32:20.182Z,7.10
2022-10-31T10:34:55.707Z,6.90
2022-10-31T10:37:33.114Z,5.80
2022-10-31T10:40:13.890Z,6.10
2022-10-31T10:43:06.569Z,6.80
2022-10-31T10:45:56.266Z,6.40
2022-10-31T10:48:41.687Z,6.50
2022-10-31T10:51:38.689Z,6.50
2022-10-31T10:54:23.498Z,5.80
2022-10-31T10:57:06.326Z,5.40
2022-10-31T10:59:39.049Z,5.70
2022-10-31T11:02:22.644Z,6.00
2022-10-31T11:04:56.858Z,5.20
2022-10-31T11:07:39.242Z,6.70
2022-10-31T11:10:17.249Z,6.20
2022-10-31T11:13:03.338Z,6.20
2022-10-31T11:15:40.724Z,6.60
2022-10-31T11:21:03.841Z,6.30
2022-10-31T11:23:36.787Z,5.90
2022-10-31T11:26:17.326Z,5.80
2022-10-31T11:29:00.750Z,6.20
2022-10-31T11:31:33.950Z,6.70
2022-10-31T11:34:07.683Z,7.10
2022-10-31T11:36:41.833Z,6.60
2022-10-31T11:39:21.562Z,7.30
2022-10-31T11:41:54.676Z,7.00
2022-10-31T11:44:30.150Z,7.00
2022-10-31T11:47:04.255Z,6.60
2022-10-31T11:49:39.091Z,6.60
2022-10-31T11:52:15.758Z,5.60
2022-10-31T11:54:51.109Z,5.90
2022-10-31T11:57:32.704Z,6.60
2022-10-31T12:00:06.787Z,5.90
2022-10-31T12:02:39.076Z,6.30
2022-10-31T12:05:21.141Z,6.10
2022-10-31T12:07:54.003Z,5.40
2022-10-31T12:10:30.038Z,5.80
2022-10-31T12:13:08.409Z,5.80
2022-10-31T12:15:42.255Z,6.30
2022-10-31T12:18:27.877Z,5.80
2022-10-31T12:21:09.206Z,5.20
2022-10-31T12:24:07.653Z,5.30
2022-10-31T12:26:48.590Z,5.10
2022-10-31T12:29:34.813Z,5.70
2022-10-31T12:32:20.337Z,5.50
2022-10-31T12:35:22.071Z,5.50
2022-10-31T12:38:05.024Z,6.60
2022-10-31T12:40:47.915Z,5.10
2022-10-31T12:43:37.035Z,5.10
2022-10-31T12:46:13.333Z,5.60
2022-10-31T12:49:05.938Z,6.00
2022-10-31T12:51:45.857Z,6.10
2022-10-31T12:54:34.738Z,5.30
2022-10-31T12:57:13.276Z,6.20
2022-10-31T12:59:48.402Z,6.90
2022-10-31T13:02:24.270Z,5.60
2022-10-31T13:04:59.865Z,6.40
2022-10-31T13:07:37.193Z,6.10
2022-10-31T13:10:16.240Z,5.40
2022-10-31T13:12:51.546Z,6.10
2022-10-31T13:15:25.873Z,6.80
2022-10-31T13:18:00.145Z,6.30
2022-10-31T13:20:34.301Z,6.30
2022-10-31T13:23:23.889Z,6.30
2022-10-31T13:26:09.344Z,6.20
2022-10-31T13:28:46.302Z,7.10
2022-10-31T13:31:18.823Z,6.60
2022-10-31T13:33:53.921Z,6.10
2022-10-31T13:36:31.391Z,6.00
2022-10-31T13:39:21.128Z,5.40
2022-10-31T13:41:55.971Z,6.60
2022-10-31T13:44:31.311Z,6.30
2022-10-31T13:47:20.298Z,8.30
2022-10-31T13:49:52.933Z,7.10
2022-10-31T13:52:28.883Z,6.40
2022-10-31T13:55:01.055Z,6.50
2022-10-31T14:00:27.449Z,6.50
2022-10-31T14:05:32.571Z,6.20
2022-10-31T14:08:07.201Z,6.00
2022-10-31T14:10:41.110Z,6.00
2022-10-31T14:13:20.500Z,6.50
2022-10-31T14:15:59.048Z,6.50
2022-10-31T14:18:34.587Z,5.70
2022-10-31T14:21:18.106Z,6.10
2022-10-31T14:23:52.489Z,6.30
2022-10-31T14:26:37.576Z,5.80
2022-10-31T14:29:25.822Z,6.20
2022-10-31T14:32:00.943Z,6.30
2022-10-31T14:34:35.753Z,6.20
2022-10-31T14:37:35.048Z,5.60
2022-10-31T14:40:29.768Z,6.30
2022-10-31T14:43:29.910Z,6.70
2022-10-31T14:46:05.351Z,7.10
2022-10-31T14:48:59.234Z,6.80
2022-10-31T14:51:38.510Z,6.90
2022-10-31T14:54:15.389Z,7.20
2022-10-31T14:56:52.654Z,7.10
2022-10-31T14:59:27.103Z,6.60
2022-10-31T15:02:01.379Z,7.50
2022-10-31T15:04:36.681Z,6.30
2022-10-31T15:07:13.715Z,6.90
2022-10-31T15:09:46.625Z,7.50
2022-10-31T15:12:27.535Z,7.70
2022-10-31T15:15:00.622Z,6.70
2022-10-31T15:17:32.805Z,6.60
2022-10-31T15:20:05.036Z,7.50
2022-10-31T15:22:37.683Z,7.50
2022-10-31T15:25:18.819Z,7.90
2022-10-31T15:27:52.175Z,7.50
2022-10-31T15:30:26.627Z,7.70
2022-10-31T15:32:59.454Z,8.20
2022-10-31T15:35:32.712Z,7.90
2022-10-31T15:38:05.262Z,8.00
2022-10-31T15:40:37.635Z,9.50
2022-10-31T15:43:09.746Z,7.80
2022-10-31T15:45:41.856Z,8.70
2022-10-31T15:48:20.639Z,8.20
2022-10-31T15:50:54.651Z,8.80
2022-10-31T15:53:29.961Z,8.60
2022-10-31T15:56:05.158Z,8.50
2022-10-31T15:58:44.187Z,8.20
2022-10-31T16:01:26.137Z,8.80
2022-10-31T16:04:22.044Z,8.70
2022-10-31T16:07:03.121Z,8.10
2022-10-31T16:09:35.302Z,8.50
2022-10-31T16:12:07.660Z,8.00
2022-10-31T16:17:15.604Z,7.80
2022-10-31T16:19:55.073Z,9.30
2022-10-31T16:22:30.066Z,8.90
2022-10-31T16:25:07.217Z,9.50
2022-10-31T16:27:40.634Z,8.90
2022-10-31T16:30:43.963Z,8.20
2022-10-31T16:33:29.541Z,8.70
2022-10-31T16:36:22.428Z,9.50
2022-10-31T16:38:55.534Z,8.20
2022-10-31T16:41:28.582Z,9.30
2022-10-31T16:44:02.552Z,10.00
2022-10-31T16:46:34.721Z,11.10
2022-10-31T16:49:06.823Z,10.20
2022-10-31T16:51:39.008Z,9.70
2022-10-31T16:54:11.925Z,9.70
2022-10-31T16:56:45.674Z,10.50
2022-10-31T16:59:17.925Z,9.60
2022-10-31T17:01:52.494Z,9.50
2022-10-31T17:04:25.210Z,9.50
2022-10-31T17:09:28.073Z,10.40
2022-10-31T17:14:31.183Z,9.90
2022-10-31T17:17:06.268Z,10.80
2022-10-31T17:19:38.645Z,10.70
2022-10-31T17:22:13.357Z,11.80
2022-10-31T17:24:45.460Z,11.90
2022-10-31T17:27:17.739Z,10.80
2022-10-31T17:32:21.031Z,12.70
2022-10-31T17:34:53.259Z,12.20
2022-10-31T17:37:25.396Z,12.90
2022-10-31T17:39:57.774Z,13.10
2022-10-31T17:42:29.997Z,12.50
2022-10-31T17:45:02.217Z,12.60
2022-10-31T17:47:34.515Z,14.20
2022-10-31T17:50:07.500Z,12.60
2022-10-31T17:52:39.711Z,12.40
2022-10-31T17:55:12.780Z,12.50
2022-10-31T17:57:45.184Z,12.90
2022-10-31T18:00:24.388Z,13.10
2022-10-31T18:02:56.580Z,13.10
2022-10-31T18:05:28.728Z,13.00
2022-10-31T18:08:04.109Z,14.10
2022-10-31T18:10:36.731Z,14.70
2022-10-31T18:13:08.924Z,13.70
2022-10-31T18:15:43.575Z,13.80
2022-10-31T18:18:15.959Z,14.20
2022-10-31T18:20:48.124Z,15.30
2022-10-31T18:23:20.300Z,15.30
2022-10-31T18:25:52.419Z,14.30
2022-10-31T18:28:24.604Z,15.20
2022-10-31T18:30:56.777Z,14.60
2022-10-31T18:33:29.094Z,13.90
2022-10-31T18:36:07.708Z,14.50
2022-10-31T18:38:42.471Z,14.80
2022-10-31T18:41:15.645Z,15.80
2022-10-31T18:43:50.718Z,15.40
2022-10-31T18:46:22.877Z,15.50
2022-10-31T18:49:19.434Z,15.30
2022-10-31T18:52:10.210Z,16.00
2022-10-31T18:54:59.637Z,16.90
2022-10-31T18:57:33.448Z,16.00
2022-10-31T19:00:17.982Z,15.60
2022-10-31T19:03:11.088Z,15.80
2022-10-31T19:06:02.960Z,15.40
2022-10-31T19:08:35.357Z,16.90
2022-10-31T19:11:11.727Z,16.90
2022-10-31T19:13:44.383Z,17.00
2022-10-31T19:16:17.784Z,18.10
2022-10-31T19:18:51.259Z,18.30
2022-10-31T19:21:23.478Z,17.30
2022-10-31T19:23:58.632Z,16.80
2022-10-31T19:26:31.198Z,18.00
2022-10-31T19:29:05.071Z,18.50
2022-10-31T19:31:37.298Z,18.70
2022-10-31T19:34:09.558Z,19.50
2022-10-31T19:36:43.072Z,19.40
2022-10-31T19:39:22.260Z,20.80
2022-10-31T19:41:58.461Z,20.60
2022-10-31T19:44:51.562Z,20.70
2022-10-31T19:47:28.621Z,20.00
2022-10-31T19:50:06.852Z,20.80
2022-10-31T19:52:43.845Z,20.30
2022-10-31T19:55:19.483Z,19.20
2022-10-31T19:58:01.761Z,19.20
2022-10-31T20:00:34.914Z,19.20
2022-10-31T20:03:07.347Z,22.50
2022-10-31T20:05:42.778Z,20.60
2022-10-31T20:08:17.695Z,20.80
2022-10-31T20:10:58.654Z,20.10
2022-10-31T20:13:36.185Z,20.00
2022-10-31T20:16:12.161Z,19.90
2022-10-31T20:18:48.251Z,21.20
2022-10-31T20:21:23.503Z,20.90
2022-10-31T20:24:05.501Z,19.70
2022-10-31T20:26:45.057Z,21.70
2022-10-31T20:29:20.198Z,22.30
2022-10-31T20:31:57.288Z,21.90
2022-10-31T20:34:33.996Z,23.10
2022-10-31T20:37:14.114Z,25.70
2022-10-31T20:39:46.599Z,25.10
2022-10-31T20:44:55.719Z,27.50
2022-10-31T20:47:32.136Z,29.60
2022-10-31T20:50:09.272Z,29.90
2022-10-31T20:52:43.895Z,26.60
2022-10-31T20:55:19.988Z,27.70
2022-10-31T20:57:59.094Z,32.20
2022-10-31T21:00:37.115Z,36.10
2022-10-31T21:03:17.296Z,47.90
2022-10-31T21:06:08.643Z,58.60
2022-10-31T21:08:48.952Z,56.10
2022-10-31T21:11:23.140Z,52.60
2022-10-31T21:13:57.677Z,54.40
2022-10-31T21:16:32.466Z,50.80
2022-10-31T21:19:13.157Z,45.30
2022-10-31T21:21:45.919Z,44.30
2022-10-31T21:24:20.565Z,49.90
2022-10-31T21:26:53.986Z,49.10
2022-10-31T21:29:26.306Z,49.00
2022-10-31T21:31:58.536Z,48.40
2022-10-31T21:34:30.860Z,52.10
2022-10-31T21:37:03.110Z,50.80
2022-10-31T21:39:35.445Z,51.50
2022-10-31T21:42:07.857Z,49.40
2022-10-31T21:44:40.178Z,49.40
2022-10-31T21:47:12.512Z,50.60
2022-10-31T21:49:44.698Z,47.60
2022-10-31T21:52:16.911Z,49.90
2022-10-31T21:54:49.170Z,49.00
2022-10-31T21:59:54.782Z,43.50
2022-10-31T22:02:27.000Z,43.10
2022-10-31T22:04:59.220Z,48.00
2022-10-31T22:07:32.299Z,49.20
2022-10-31T22:10:04.650Z,45.50
2022-10-31T22:12:36.833Z,46.30
2022-10-31T22:15:10.154Z,46.30
2022-10-31T22:17:42.356Z,44.60
2022-10-31T22:20:14.903Z,41.90
2022-10-31T22:25:17.943Z,40.10
2022-10-31T22:27:50.138Z,40.70
2022-10-31T22:30:22.657Z,38.00
2022-10-31T22:32:54.938Z,35.80
2022-10-31T22:35:27.169Z,24.80
2022-10-31T22:37:59.435Z,20.70
2022-10-31T22:40:31.568Z,20.10
2022-10-31T22:43:04.183Z,20.20
2022-10-31T22:45:36.972Z,18.80
2022-10-31T22:48:09.535Z,20.20
2022-10-31T22:53:16.068Z,15.80
2022-10-31T22:55:50.731Z,18.30
2022-10-31T22:58:22.878Z,19.20
2022-10-31T23:00:55.443Z,20.40
2022-10-31T23:03:28.118Z,19.30
2022-10-31T23:06:01.441Z,19.50
2022-10-31T23:08:35.850Z,20.00
2022-10-31T23:11:16.432Z,18.00
2022-10-31T23:14:07.847Z,17.70
2022-10-31T23:16:42.390Z,19.00
2022-10-31T23:19:15.836Z,18.40
2022-10-31T23:22:01.050Z,18.80
2022-10-31T23:24:36.813Z,18.40
2022-10-31T23:27:12.303Z,18.10
2022-10-31T23:29:48.612Z,18.20
2022-10-31T23:32:23.352Z,19.90
2022-10-31T23:34:56.674Z,18.80
2022-10-31T23:37:31.431Z,17.70
2022-10-31T23:40:03.765Z,19.30
2022-10-31T23:42:35.898Z,18.40
2022-10-31T23:45:10.772Z,17.10
2022-10-31T23:47:43.515Z,18.40
2022-10-31T23:50:15.916Z,17.20
2022-10-31T23:52:48.140Z,18.40
2022-10-31T23:55:20.664Z,17.90
2022-10-31T23:57:52.953Z,16.40
